createdAt,value
2023-11-27T00:01:57.765Z,17.70
2023-11-27T00:04:24.703Z,17.80
2023-11-27T00:06:51.635Z,18.10
2023-11-27T00:09:18.360Z,17.90
2023-11-27T00:11:45.077Z,18.00
2023-11-27T00:14:11.826Z,18.20
2023-11-27T00:16:38.608Z,17.90
2023-11-27T00:19:05.452Z,18.10
2023-11-27T00:21:32.142Z,18.10
2023-11-27T00:24:01.070Z,18.20
2023-11-27T00:26:29.622Z,18.00
2023-11-27T00:28:56.358Z,18.00
2023-11-27T00:31:23.198Z,17.90
2023-11-27T00:33:50.089Z,18.00
2023-11-27T00:36:17.306Z,17.90
2023-11-27T00:38:44.255Z,17.90
2023-11-27T00:41:15.749Z,18.00
2023-11-27T00:43:43.278Z,17.90
2023-11-27T00:46:14.738Z,17.90
2023-11-27T00:48:44.195Z,17.90
2023-11-27T00:51:11.005Z,17.90
2023-11-27T00:53:37.846Z,17.80
2023-11-27T00:56:06.099Z,17.80
2023-11-27T00:58:32.952Z,17.90
2023-11-27T01:00:59.798Z,17.90
2023-11-27T01:03:27.445Z,18.00
2023-11-27T01:05:57.172Z,18.10
2023-11-27T01:08:25.304Z,18.20
2023-11-27T01:10:52.639Z,18.10
2023-11-27T01:13:20.652Z,18.10
2023-11-27T01:15:47.651Z,18.10
2023-11-27T01:18:14.448Z,18.00
2023-11-27T01:20:41.136Z,18.00
2023-11-27T01:23:07.818Z,18.00
2023-11-27T01:25:34.509Z,18.20
2023-11-27T01:28:01.218Z,18.00
2023-11-27T01:30:27.881Z,18.10
2023-11-27T01:32:54.746Z,18.10
2023-11-27T01:35:21.576Z,18.20
2023-11-27T01:37:48.643Z,18.20
2023-11-27T01:40:15.392Z,18.20
2023-11-27T01:42:42.309Z,18.30
2023-11-27T01:45:09.415Z,18.10
2023-11-27T01:47:36.387Z,18.10
2023-11-27T01:50:03.898Z,18.10
2023-11-27T01:52:32.374Z,18.10
2023-11-27T01:54:59.284Z,18.10
2023-11-27T01:57:27.817Z,18.10
2023-11-27T01:59:56.632Z,18.10
2023-11-27T02:02:24.573Z,18.20
2023-11-27T02:04:52.245Z,18.10
2023-11-27T02:07:19.679Z,18.10
2023-11-27T02:09:46.552Z,18.10
2023-11-27T02:12:13.281Z,18.10
2023-11-27T02:14:39.996Z,18.00
2023-11-27T02:17:06.892Z,17.80
2023-11-27T02:19:33.625Z,18.10
2023-11-27T02:22:00.458Z,18.10
2023-11-27T02:24:27.147Z,18.10
2023-11-27T02:26:53.832Z,18.10
2023-11-27T02:29:20.532Z,18.10
2023-11-27T02:31:47.399Z,18.10
2023-11-27T02:34:14.188Z,18.30
2023-11-27T02:36:40.908Z,18.30
2023-11-27T02:39:08.095Z,18.30
2023-11-27T02:41:38.166Z,18.20
2023-11-27T02:44:08.085Z,18.20
2023-11-27T02:46:34.921Z,18.20
2023-11-27T02:49:02.948Z,18.10
2023-11-27T02:51:29.764Z,18.10
2023-11-27T02:53:56.531Z,18.10
2023-11-27T02:56:24.639Z,18.40
2023-11-27T02:58:52.797Z,18.10
2023-11-27T03:01:19.612Z,18.10
2023-11-27T03:03:46.440Z,18.30
2023-11-27T03:06:13.785Z,18.20
2023-11-27T03:08:40.449Z,18.20
2023-11-27T03:11:07.280Z,18.10
2023-11-27T03:13:33.965Z,18.10
2023-11-27T03:16:00.648Z,18.20
2023-11-27T03:18:27.660Z,18.30
2023-11-27T03:20:54.354Z,18.60
2023-11-27T03:23:21.150Z,18.30
2023-11-27T03:25:47.929Z,18.30
2023-11-27T03:28:14.624Z,18.30
2023-11-27T03:30:41.468Z,18.30
2023-11-27T03:33:08.560Z,18.10
2023-11-27T03:35:35.434Z,18.40
2023-11-27T03:38:02.108Z,18.10
2023-11-27T03:40:28.918Z,18.30
2023-11-27T03:42:55.682Z,18.30
2023-11-27T03:45:22.396Z,18.40
2023-11-27T03:47:49.083Z,18.30
2023-11-27T03:50:16.137Z,18.30
2023-11-27T03:52:43.389Z,18.20
2023-11-27T03:55:11.033Z,18.30
2023-11-27T03:57:37.849Z,18.20
2023-11-27T04:00:10.158Z,18.30
2023-11-27T04:02:38.833Z,18.30
2023-11-27T04:05:06.267Z,18.40
2023-11-27T04:07:32.954Z,18.40
2023-11-27T04:09:59.682Z,18.40
2023-11-27T04:12:26.418Z,18.30
2023-11-27T04:14:53.547Z,18.20
2023-11-27T04:17:20.239Z,18.30
2023-11-27T04:19:46.949Z,18.30
2023-11-27T04:22:13.685Z,18.30
2023-11-27T04:24:40.452Z,18.30
2023-11-27T04:27:07.191Z,18.20
2023-11-27T04:29:33.954Z,18.30
2023-11-27T04:32:01.716Z,18.30
2023-11-27T04:34:28.513Z,18.30
2023-11-27T04:36:55.278Z,18.30
2023-11-27T04:39:24.181Z,18.30
2023-11-27T04:41:50.918Z,18.50
2023-11-27T04:44:17.691Z,18.40
2023-11-27T04:46:44.441Z,18.50
2023-11-27T04:49:12.951Z,18.40
2023-11-27T04:51:39.814Z,18.50
2023-11-27T04:54:06.959Z,18.30
2023-11-27T04:56:33.668Z,18.40
2023-11-27T04:59:00.370Z,18.40
2023-11-27T05:01:27.196Z,18.30
2023-11-27T05:03:54.043Z,18.30
2023-11-27T05:06:20.756Z,18.20
2023-11-27T05:08:47.502Z,18.30
2023-11-27T05:11:20.639Z,18.30
2023-11-27T05:13:50.429Z,18.20
2023-11-27T05:16:18.678Z,18.30
2023-11-27T05:18:46.297Z,18.30
2023-11-27T05:21:14.992Z,18.30
2023-11-27T05:23:44.952Z,18.30
2023-11-27T05:26:12.812Z,18.20
2023-11-27T05:28:40.980Z,18.20
2023-11-27T05:31:07.831Z,18.50
2023-11-27T05:33:35.007Z,18.40
2023-11-27T05:36:03.675Z,18.40
2023-11-27T05:38:30.406Z,18.40
2023-11-27T05:41:02.646Z,18.60
2023-11-27T05:43:29.630Z,18.50
2023-11-27T05:45:57.739Z,18.40
2023-11-27T05:48:24.603Z,18.40
2023-11-27T05:50:52.065Z,18.50
2023-11-27T05:53:18.748Z,18.30
2023-11-27T05:55:45.577Z,18.70
2023-11-27T05:58:12.654Z,18.20
2023-11-27T06:00:39.593Z,18.20
2023-11-27T06:03:06.422Z,18.20
2023-11-27T06:05:33.158Z,18.20
2023-11-27T06:08:01.091Z,18.30
2023-11-27T06:10:27.832Z,18.10
2023-11-27T06:12:54.639Z,18.20
2023-11-27T06:15:21.700Z,18.00
2023-11-27T06:17:48.801Z,17.90
2023-11-27T06:20:15.812Z,18.00
2023-11-27T06:22:42.963Z,17.90
2023-11-27T06:25:10.643Z,17.70
2023-11-27T06:27:37.978Z,17.90
2023-11-27T06:30:05.292Z,17.90
2023-11-27T06:32:32.167Z,17.90
2023-11-27T06:34:59.027Z,17.90
2023-11-27T06:37:26.657Z,17.90
2023-11-27T06:39:53.479Z,17.90
2023-11-27T06:42:20.398Z,17.90
2023-11-27T06:44:47.098Z,17.90
2023-11-27T06:47:14.068Z,17.90
2023-11-27T06:49:40.902Z,17.90
2023-11-27T06:52:08.208Z,17.70
2023-11-27T06:54:34.977Z,17.80
2023-11-27T06:57:01.821Z,17.90
2023-11-27T06:59:28.523Z,17.90
2023-11-27T07:01:55.633Z,17.80
2023-11-27T07:04:22.806Z,18.10
2023-11-27T07:06:49.668Z,17.80
2023-11-27T07:09:16.514Z,17.80
2023-11-27T07:11:43.311Z,17.70
2023-11-27T07:14:10.228Z,17.80
2023-11-27T07:16:39.030Z,17.70
2023-11-27T07:19:05.967Z,17.80
2023-11-27T07:21:32.754Z,17.80
2023-11-27T07:23:59.457Z,17.70
2023-11-27T07:26:26.318Z,17.70
2023-11-27T07:28:54.885Z,17.80
2023-11-27T07:31:21.763Z,17.70
2023-11-27T07:33:48.782Z,17.70
2023-11-27T07:36:15.849Z,17.70
2023-11-27T07:38:42.539Z,17.70
2023-11-27T07:41:09.972Z,17.60
2023-11-27T07:43:36.962Z,17.70
2023-11-27T07:46:07.585Z,17.80
2023-11-27T07:48:35.221Z,17.70
2023-11-27T07:51:09.600Z,17.70
2023-11-27T07:53:37.426Z,17.70
2023-11-27T07:56:04.578Z,17.70
2023-11-27T07:58:31.312Z,17.70
2023-11-27T08:00:59.337Z,17.60
2023-11-27T08:03:26.251Z,17.60
2023-11-27T08:05:55.870Z,18.00
2023-11-27T08:08:22.544Z,17.70
2023-11-27T08:10:49.429Z,17.70
2023-11-27T08:13:17.315Z,17.70
2023-11-27T08:15:45.448Z,17.60
2023-11-27T08:18:12.969Z,17.70
2023-11-27T08:20:39.918Z,17.70
2023-11-27T08:23:06.767Z,17.70
2023-11-27T08:25:34.269Z,17.60
2023-11-27T08:28:03.147Z,17.60
2023-11-27T08:30:33.679Z,17.70
2023-11-27T08:33:02.117Z,17.80
2023-11-27T08:35:29.088Z,17.80
2023-11-27T08:37:56.601Z,17.90
2023-11-27T08:40:23.619Z,17.90
2023-11-27T08:42:50.368Z,17.90
2023-11-27T08:45:17.623Z,17.80
2023-11-27T08:47:52.284Z,17.80
2023-11-27T08:50:26.210Z,17.80
2023-11-27T08:52:59.607Z,17.80
2023-11-27T08:55:31.926Z,17.70
2023-11-27T08:58:02.571Z,17.70
2023-11-27T09:00:32.195Z,17.70
2023-11-27T09:03:01.013Z,17.70
2023-11-27T09:05:32.258Z,17.60
2023-11-27T09:08:01.570Z,17.90
2023-11-27T09:10:28.836Z,17.70
2023-11-27T09:12:56.894Z,17.80
2023-11-27T09:15:23.899Z,17.70
2023-11-27T09:17:50.771Z,17.70
2023-11-27T09:20:17.742Z,17.60
2023-11-27T09:22:44.608Z,17.70
2023-11-27T09:25:13.926Z,17.70
2023-11-27T09:27:41.035Z,17.60
2023-11-27T09:30:08.774Z,17.60
2023-11-27T09:32:36.412Z,17.60
2023-11-27T09:35:05.702Z,17.70
2023-11-27T09:37:35.812Z,17.70
2023-11-27T09:40:04.909Z,17.60
2023-11-27T09:42:45.594Z,17.80
2023-11-27T09:45:14.984Z,17.60
2023-11-27T09:47:44.905Z,17.70
2023-11-27T09:50:14.046Z,17.90
2023-11-27T09:52:50.431Z,17.80
2023-11-27T09:55:19.738Z,17.40
2023-11-27T09:57:49.530Z,17.60
2023-11-27T10:00:19.945Z,17.60
2023-11-27T10:02:51.845Z,17.60
2023-11-27T10:05:20.706Z,17.50
2023-11-27T10:07:47.852Z,17.60
2023-11-27T10:10:18.506Z,17.60
2023-11-27T10:12:46.982Z,17.50
2023-11-27T10:15:17.981Z,17.50
2023-11-27T10:17:44.839Z,17.50
2023-11-27T10:20:13.826Z,17.50
2023-11-27T10:22:43.950Z,17.80
2023-11-27T10:25:15.017Z,17.50
2023-11-27T10:27:43.508Z,17.50
2023-11-27T10:30:26.147Z,17.50
2023-11-27T10:32:53.728Z,17.50
2023-11-27T10:35:24.100Z,17.50
2023-11-27T10:37:51.408Z,17.40
2023-11-27T10:40:19.374Z,17.50
2023-11-27T10:45:20.740Z,17.50
2023-11-27T10:47:49.407Z,17.50
2023-11-27T10:50:17.428Z,17.50
2023-11-27T10:52:47.914Z,17.40
2023-11-27T10:55:19.446Z,17.30
2023-11-27T10:57:49.621Z,17.40
2023-11-27T11:00:20.060Z,17.60
2023-11-27T11:02:52.162Z,17.60
2023-11-27T11:05:27.622Z,17.60
2023-11-27T11:07:56.279Z,17.60
2023-11-27T11:10:27.729Z,17.70
2023-11-27T11:12:56.096Z,17.70
2023-11-27T11:15:37.633Z,17.70
2023-11-27T11:18:22.380Z,17.70
2023-11-27T11:20:55.876Z,17.70
2023-11-27T11:23:28.350Z,17.70
2023-11-27T11:26:40.987Z,17.80
2023-11-27T11:29:33.957Z,17.80
2023-11-27T11:32:02.797Z,17.70
2023-11-27T11:34:34.103Z,17.90
2023-11-27T11:37:02.117Z,17.60
2023-11-27T11:39:29.549Z,17.70
2023-11-27T11:42:04.613Z,17.60
2023-11-27T11:44:36.671Z,17.70
2023-11-27T11:47:09.592Z,17.60
2023-11-27T11:49:36.814Z,17.60
2023-11-27T11:52:11.737Z,17.60
2023-11-27T11:54:39.705Z,17.60
2023-11-27T11:57:14.061Z,17.60
2023-11-27T11:59:41.123Z,17.50
2023-11-27T12:02:12.539Z,17.60
2023-11-27T12:04:40.672Z,17.50
2023-11-27T12:07:09.056Z,17.50
2023-11-27T12:09:35.800Z,17.50
2023-11-27T12:12:02.559Z,17.70
2023-11-27T12:14:33.631Z,17.50
2023-11-27T12:17:03.366Z,17.60
2023-11-27T12:19:31.210Z,17.80
2023-11-27T12:21:57.889Z,17.50
2023-11-27T12:24:24.572Z,17.40
2023-11-27T12:26:54.284Z,17.50
2023-11-27T12:29:21.387Z,17.60
2023-11-27T12:31:48.690Z,17.60
2023-11-27T12:34:19.025Z,17.60
2023-11-27T12:36:47.813Z,17.60
2023-11-27T12:39:18.144Z,17.60
2023-11-27T12:41:44.990Z,17.60
2023-11-27T12:44:19.672Z,17.50
2023-11-27T12:46:54.924Z,17.60
2023-11-27T12:49:24.563Z,17.60
2023-11-27T12:51:59.172Z,17.60
2023-11-27T12:54:28.499Z,17.60
2023-11-27T12:57:02.887Z,17.50
2023-11-27T12:59:29.601Z,17.50
2023-11-27T13:02:00.037Z,17.60
2023-11-27T13:04:32.297Z,17.50
2023-11-27T13:07:01.175Z,17.60
2023-11-27T13:09:27.974Z,17.50
2023-11-27T13:11:54.685Z,17.60
2023-11-27T13:14:23.425Z,17.50
2023-11-27T13:16:52.815Z,17.50
2023-11-27T13:19:20.638Z,17.60
2023-11-27T13:21:54.863Z,17.50
2023-11-27T13:24:24.044Z,17.50
2023-11-27T13:26:50.691Z,17.60
2023-11-27T13:29:19.106Z,17.50
2023-11-27T13:31:45.921Z,17.60
2023-11-27T13:34:32.715Z,17.60
2023-11-27T13:37:08.917Z,17.50
2023-11-27T13:39:39.114Z,17.50
2023-11-27T13:42:09.658Z,17.50
2023-11-27T13:44:39.509Z,17.50
2023-11-27T13:47:06.428Z,17.40
2023-11-27T13:49:35.078Z,17.40
2023-11-27T13:54:34.389Z,17.50
2023-11-27T13:57:01.144Z,17.40
2023-11-27T13:59:36.130Z,17.40
2023-11-27T14:02:12.266Z,17.40
2023-11-27T14:04:40.273Z,17.50
2023-11-27T14:07:10.114Z,17.40
2023-11-27T14:09:51.771Z,17.40
2023-11-27T14:12:27.441Z,17.40
2023-11-27T14:15:09.985Z,17.40
2023-11-27T14:17:37.444Z,17.40
2023-11-27T14:20:25.180Z,17.40
2023-11-27T14:22:56.931Z,17.70
2023-11-27T14:25:42.395Z,17.70
2023-11-27T14:28:31.775Z,17.50
2023-11-27T14:30:58.724Z,17.40
2023-11-27T14:33:25.803Z,17.60
2023-11-27T14:35:54.191Z,17.40
2023-11-27T14:38:26.844Z,17.40
2023-11-27T14:40:53.785Z,17.40
2023-11-27T14:43:23.318Z,17.40
2023-11-27T14:45:50.735Z,17.40
2023-11-27T14:48:21.022Z,17.40
2023-11-27T14:50:47.797Z,17.50
2023-11-27T14:53:14.476Z,17.40
2023-11-27T14:55:41.481Z,17.40
2023-11-27T14:58:08.394Z,17.40
2023-11-27T15:00:37.121Z,17.60
2023-11-27T15:03:05.043Z,17.40
2023-11-27T15:05:31.968Z,17.40
2023-11-27T15:07:59.740Z,17.30
2023-11-27T15:10:28.233Z,17.40
2023-11-27T15:12:55.911Z,17.40
2023-11-27T15:15:27.139Z,17.40
2023-11-27T15:17:54.761Z,17.40
2023-11-27T15:20:24.627Z,17.40
2023-11-27T15:22:55.252Z,17.40
2023-11-27T15:25:25.135Z,17.40
2023-11-27T15:27:52.939Z,17.40
2023-11-27T15:30:20.323Z,17.40
2023-11-27T15:32:47.342Z,17.40
2023-11-27T15:35:18.694Z,17.40
2023-11-27T15:37:46.579Z,17.30
2023-11-27T15:40:22.856Z,17.40
2023-11-27T15:42:49.669Z,17.40
2023-11-27T15:45:16.871Z,17.50
2023-11-27T15:47:43.934Z,17.50
2023-11-27T15:50:15.130Z,17.70
2023-11-27T15:52:46.746Z,17.50
2023-11-27T15:55:14.111Z,17.50
2023-11-27T15:57:48.118Z,17.50
2023-11-27T16:00:20.964Z,17.50
2023-11-27T16:02:48.310Z,17.50
2023-11-27T16:05:18.605Z,17.60
2023-11-27T16:07:46.015Z,17.50
2023-11-27T16:10:16.216Z,17.40
2023-11-27T16:12:44.019Z,17.40
2023-11-27T16:15:11.778Z,17.40
2023-11-27T16:17:52.866Z,17.60
2023-11-27T16:20:26.168Z,17.40
2023-11-27T16:22:53.401Z,17.30
2023-11-27T16:25:21.348Z,17.40
2023-11-27T16:27:48.052Z,17.40
2023-11-27T16:30:18.948Z,17.40
2023-11-27T16:32:46.557Z,17.40
2023-11-27T16:35:16.473Z,17.40
2023-11-27T16:37:45.029Z,17.40
2023-11-27T16:40:16.106Z,17.40
2023-11-27T16:42:53.942Z,17.40
2023-11-27T16:45:23.901Z,17.40
2023-11-27T16:47:57.461Z,17.40
2023-11-27T16:50:26.466Z,17.40
2023-11-27T16:52:57.953Z,17.30
2023-11-27T16:55:30.666Z,17.50
2023-11-27T16:58:06.806Z,17.40
2023-11-27T17:00:37.489Z,17.40
2023-11-27T17:03:07.604Z,17.30
2023-11-27T17:05:34.903Z,17.40
2023-11-27T17:08:04.493Z,17.60
2023-11-27T17:10:41.012Z,17.50
2023-11-27T17:13:12.130Z,17.30
2023-11-27T17:15:45.912Z,17.30
2023-11-27T17:18:14.122Z,17.60
2023-11-27T17:20:42.191Z,17.30
2023-11-27T17:23:09.630Z,17.30
2023-11-27T17:25:37.321Z,17.40
2023-11-27T17:28:07.913Z,17.30
2023-11-27T17:30:35.913Z,17.20
2023-11-27T17:33:04.611Z,17.30
2023-11-27T17:35:32.406Z,17.40
2023-11-27T17:37:59.245Z,17.30
2023-11-27T17:40:27.170Z,17.40
2023-11-27T17:42:53.965Z,17.40
2023-11-27T17:45:25.314Z,17.30
2023-11-27T17:47:53.019Z,17.30
2023-11-27T17:50:23.034Z,17.30
2023-11-27T17:52:52.963Z,17.30
2023-11-27T17:55:21.894Z,17.50
2023-11-27T17:57:51.269Z,17.30
2023-11-27T18:00:20.543Z,17.30
2023-11-27T18:02:54.075Z,17.30
2023-11-27T18:05:24.643Z,17.40
2023-11-27T18:07:53.095Z,17.30
2023-11-27T18:10:20.614Z,17.30
2023-11-27T18:12:47.896Z,17.30
2023-11-27T18:15:18.386Z,17.30
2023-11-27T18:17:47.056Z,17.30
2023-11-27T18:20:17.560Z,17.40
2023-11-27T18:22:48.723Z,17.40
2023-11-27T18:25:19.271Z,17.30
2023-11-27T18:27:46.976Z,17.30
2023-11-27T18:30:15.048Z,17.40
2023-11-27T18:32:42.996Z,17.30
2023-11-27T18:35:11.606Z,17.40
2023-11-27T18:37:43.266Z,17.40
2023-11-27T18:40:11.371Z,17.40
2023-11-27T18:42:42.133Z,17.40
2023-11-27T18:45:11.347Z,17.40
2023-11-27T18:47:40.598Z,17.40
2023-11-27T18:50:08.551Z,17.40
2023-11-27T18:52:35.684Z,17.40
2023-11-27T18:55:02.633Z,17.40
2023-11-27T18:57:29.372Z,17.40
2023-11-27T18:59:56.075Z,17.50
2023-11-27T19:02:22.955Z,17.40
2023-11-27T19:04:49.832Z,17.30
2023-11-27T19:07:16.813Z,17.40
2023-11-27T19:09:44.097Z,17.40
2023-11-27T19:12:11.070Z,17.40
2023-11-27T19:14:38.004Z,17.30
2023-11-27T19:17:09.140Z,17.40
2023-11-27T19:19:36.108Z,17.40
2023-11-27T19:22:03.650Z,17.40
2023-11-27T19:24:32.795Z,17.40
2023-11-27T19:26:59.632Z,17.20
2023-11-27T19:29:26.538Z,17.40
2023-11-27T19:31:54.520Z,17.50
2023-11-27T19:34:22.179Z,17.50
2023-11-27T19:36:49.276Z,17.60
2023-11-27T19:39:19.953Z,17.50
2023-11-27T19:41:51.594Z,17.50
2023-11-27T19:44:19.344Z,17.50
2023-11-27T19:46:46.110Z,17.40
2023-11-27T19:49:13.933Z,17.40
2023-11-27T19:51:41.173Z,17.30
2023-11-27T19:54:12.375Z,17.50
2023-11-27T19:56:41.095Z,17.50
2023-11-27T19:59:07.763Z,17.40
2023-11-27T20:01:34.750Z,17.50
2023-11-27T20:04:01.599Z,17.40
2023-11-27T20:06:28.389Z,17.50
2023-11-27T20:08:55.309Z,17.40
2023-11-27T20:11:22.174Z,17.50
2023-11-27T20:13:50.475Z,17.70
2023-11-27T20:16:17.650Z,17.20
2023-11-27T20:18:45.150Z,17.40
2023-11-27T20:21:11.932Z,17.70
2023-11-27T20:23:40.037Z,17.50
2023-11-27T20:26:07.113Z,17.80
2023-11-27T20:28:33.953Z,17.50
2023-11-27T20:31:00.817Z,17.50
2023-11-27T20:33:35.242Z,17.50
2023-11-27T20:36:03.155Z,17.40
2023-11-27T20:38:29.891Z,17.40
2023-11-27T20:40:56.679Z,17.40
2023-11-27T20:43:25.140Z,17.40
2023-11-27T20:45:55.066Z,17.40
2023-11-27T20:48:21.825Z,17.40
2023-11-27T20:50:48.630Z,17.40
2023-11-27T20:53:16.277Z,17.40
2023-11-27T20:55:43.155Z,17.40
2023-11-27T20:58:11.091Z,17.30
2023-11-27T21:00:37.828Z,17.30
2023-11-27T21:03:05.638Z,17.30
2023-11-27T21:05:32.357Z,17.30
2023-11-27T21:08:00.296Z,17.40
2023-11-27T21:10:27.189Z,17.30
2023-11-27T21:12:54.009Z,17.40
2023-11-27T21:15:20.687Z,17.30
2023-11-27T21:17:47.493Z,17.30
2023-11-27T21:20:15.056Z,17.40
2023-11-27T21:22:43.726Z,17.30
2023-11-27T21:25:11.433Z,17.50
2023-11-27T21:27:38.095Z,17.30
2023-11-27T21:30:06.203Z,17.40
2023-11-27T21:32:33.419Z,17.30
2023-11-27T21:35:00.308Z,17.30
2023-11-27T21:37:27.298Z,17.30
2023-11-27T21:39:54.089Z,17.30
2023-11-27T21:42:22.077Z,17.30
2023-11-27T21:44:48.919Z,17.30
2023-11-27T21:47:15.619Z,17.40
2023-11-27T21:49:45.429Z,17.30
2023-11-27T21:52:12.494Z,17.20
2023-11-27T21:54:39.528Z,17.30
2023-11-27T21:57:06.280Z,17.30
2023-11-27T21:59:33.337Z,17.30
2023-11-27T22:02:00.236Z,17.30
2023-11-27T22:04:27.197Z,17.30
2023-11-27T22:06:54.019Z,17.30
2023-11-27T22:09:21.967Z,17.50
2023-11-27T22:11:48.833Z,17.20
2023-11-27T22:14:15.529Z,17.20
2023-11-27T22:16:42.431Z,17.30
2023-11-27T22:19:09.197Z,17.20
2023-11-27T22:21:36.066Z,17.20
2023-11-27T22:24:03.069Z,17.30
2023-11-27T22:26:29.886Z,17.20
2023-11-27T22:28:56.669Z,17.30
2023-11-27T22:31:24.165Z,17.30
2023-11-27T22:33:50.903Z,17.20
2023-11-27T22:36:18.626Z,17.20
2023-11-27T22:38:45.378Z,17.20
2023-11-27T22:41:13.387Z,17.20
2023-11-27T22:43:40.269Z,17.20
2023-11-27T22:46:07.484Z,17.10
2023-11-27T22:48:35.291Z,17.20
2023-11-27T22:51:02.061Z,17.20
2023-11-27T22:53:30.232Z,17.20
2023-11-27T22:55:58.037Z,17.20
2023-11-27T22:58:25.115Z,17.20
2023-11-27T23:00:51.911Z,17.20
2023-11-27T23:03:18.716Z,17.20
2023-11-27T23:05:45.489Z,17.20
2023-11-27T23:08:12.199Z,17.20
2023-11-27T23:10:39.590Z,17.20
2023-11-27T23:13:06.364Z,17.20
2023-11-27T23:15:33.114Z,17.20
2023-11-27T23:17:59.866Z,17.20
2023-11-27T23:20:26.847Z,17.20
2023-11-27T23:22:53.784Z,17.20
2023-11-27T23:25:21.707Z,17.20
2023-11-27T23:27:48.532Z,17.20
2023-11-27T23:30:15.785Z,17.20
2023-11-27T23:32:42.589Z,17.10
2023-11-27T23:35:10.145Z,17.20
2023-11-27T23:37:36.959Z,17.20
2023-11-27T23:40:05.129Z,17.10
2023-11-27T23:42:31.799Z,17.20
2023-11-27T23:44:58.559Z,17.20
2023-11-27T23:47:25.310Z,17.30
2023-11-27T23:49:52.253Z,17.20
2023-11-27T23:52:18.935Z,17.20
2023-11-27T23:54:45.845Z,17.20
2023-11-27T23:57:12.563Z,17.20
2023-11-27T23:59:39.307Z,17.50
